Time;durP1;ratioP1;P1;durP2;ratioP2;P2;SDS_P1;SDS_P2;PMS_P1;PMS_P2;Temp;Humidity;BMP_temperature;BMP_pressure;BME280_temperature;BME280_humidity;BME280_pressure;Samples;Min_cycle;Max_cycle;Signal;HPM_P1;HPM_P2
2024/03/03 00:01:28;;;;;;;1.40;0.30;;;11.90;78.10;;;;;;4971256;28;20038;-66
2024/03/03 00:03:54;;;;;;;0.20;0.20;;;11.80;80.20;;;;;;4971219;28;20813;-67
2024/03/03 00:06:20;;;;;;;0.53;0.30;;;11.90;78.50;;;;;;4971444;28;20027;-66
2024/03/03 00:08:45;;;;;;;1.97;0.43;;;11.80;79.80;;;;;;4969472;28;20801;-66
2024/03/03 00:11:11;;;;;;;0.50;0.30;;;11.80;80.30;;;;;;4975181;28;20504;-66
2024/03/03 00:13:36;;;;;;;1.07;0.40;;;11.80;79.80;;;;;;4990141;28;20406;-66
2024/03/03 00:16:04;;;;;;;3.40;0.30;;;11.80;78.60;;;;;;5006959;28;20030;-66
2024/03/03 00:18:29;;;;;;;0.65;0.40;;;11.70;80.40;;;;;;5003126;28;20053;-66
2024/03/03 00:20:55;;;;;;;0.40;0.30;;;11.80;79.00;;;;;;4990351;28;20416;-66
2024/03/03 00:23:20;;;;;;;3.93;0.60;;;11.80;79.30;;;;;;4990380;28;20026;-66
2024/03/03 00:25:46;;;;;;;4.43;0.53;;;11.70;79.50;;;;;;4989263;28;20034;-66
2024/03/03 00:28:12;;;;;;;1.37;0.50;;;11.70;80.40;;;;;;4989758;28;20038;-66
2024/03/03 00:30:37;;;;;;;0.60;0.40;;;11.70;79.90;;;;;;4989833;28;20050;-66
2024/03/03 00:33:03;;;;;;;0.53;0.30;;;11.70;79.50;;;;;;4990071;28;20026;-66
2024/03/03 00:35:29;;;;;;;0.30;0.30;;;11.70;80.40;;;;;;4990214;28;20030;-69
2024/03/03 00:37:55;;;;;;;0.63;0.47;;;11.70;80.00;;;;;;4990033;28;20046;-67
2024/03/03 00:40:20;;;;;;;0.50;0.37;;;11.70;80.30;;;;;;4989911;28;20030;-66
2024/03/03 00:42:46;;;;;;;0.83;0.50;;;11.70;80.00;;;;;;4989474;28;20357;-66
2024/03/03 00:45:11;;;;;;;0.40;0.30;;;11.70;80.60;;;;;;4989355;28;20034;-66
2024/03/03 00:47:37;;;;;;;0.40;0.30;;;11.60;79.60;;;;;;4989666;28;20034;-67
2024/03/03 00:50:04;;;;;;;0.40;0.30;;;11.70;79.10;;;;;;4990092;28;20050;-66
2024/03/03 00:52:29;;;;;;;0.75;0.50;;;11.70;79.70;;;;;;4989182;28;20277;-66
2024/03/03 00:54:56;;;;;;;1.57;0.50;;;11.60;78.90;;;;;;4989517;28;20042;-68
2024/03/03 00:57:22;;;;;;;0.30;0.30;;;11.60;80.10;;;;;;4988523;28;20498;-66
2024/03/03 00:59:48;;;;;;;1.03;0.30;;;11.50;80.20;;;;;;4989996;28;20041;-66
2024/03/03 01:02:13;;;;;;;1.93;0.40;;;11.50;80.40;;;;;;4989307;28;20029;-67
2024/03/03 01:04:39;;;;;;;2.83;0.30;;;11.60;79.10;;;;;;4988863;28;20030;-67
2024/03/03 01:07:05;;;;;;;0.60;0.50;;;11.60;80.70;;;;;;4985968;28;20355;-70
2024/03/03 01:09:31;;;;;;;2.50;0.50;;;11.60;79.40;;;;;;4987440;28;20141;-67
2024/03/03 01:11:56;;;;;;;0.95;0.40;;;11.70;78.40;;;;;;4977831;28;20506;-70
2024/03/03 01:14:23;;;;;;;0.70;0.50;;;11.70;79.10;;;;;;4972286;28;20077;-72
2024/03/03 01:16:48;;;;;;;0.60;0.50;;;11.60;79.70;;;;;;4989760;28;20602;-75
2024/03/03 01:19:14;;;;;;;1.53;0.40;;;11.70;79.20;;;;;;4990760;28;20125;-67
2024/03/03 01:21:40;;;;;;;0.30;0.30;;;11.60;80.70;;;;;;4990116;28;20027;-67
2024/03/03 01:24:06;;;;;;;1.80;0.43;;;11.60;79.60;;;;;;4990276;28;20033;-67
2024/03/03 01:26:32;;;;;;;0.63;0.50;;;11.60;79.60;;;;;;4989976;28;20524;-66
2024/03/03 01:28:57;;;;;;;0.28;0.28;;;11.70;78.10;;;;;;4988968;28;20034;-67
2024/03/03 01:31:23;;;;;;;0.50;0.20;;;11.60;79.40;;;;;;4989663;28;20033;-66
2024/03/03 01:33:49;;;;;;;0.52;0.30;;;11.70;78.00;;;;;;4989752;28;20153;-66
2024/03/03 01:36:16;;;;;;;0.30;0.30;;;11.80;77.60;;;;;;4989445;28;20042;-67
2024/03/03 01:38:41;;;;;;;0.55;0.30;;;11.80;78.10;;;;;;4987937;28;20045;-65
2024/03/03 01:41:07;;;;;;;0.20;0.20;;;11.80;77.50;;;;;;4989158;28;20026;-67
2024/03/03 01:43:33;;;;;;;0.20;0.20;;;11.70;78.20;;;;;;4989436;28;20030;-66
2024/03/03 01:45:58;;;;;;;0.30;0.30;;;11.70;78.50;;;;;;4988609;28;20028;-66
2024/03/03 01:48:24;;;;;;;0.83;0.40;;;11.70;78.70;;;;;;4988554;28;20034;-66
2024/03/03 01:50:50;;;;;;;0.55;0.30;;;11.70;77.60;;;;;;4989228;28;20052;-66
2024/03/03 01:53:17;;;;;;;0.63;0.20;;;11.80;77.60;;;;;;4988930;28;20034;-67
2024/03/03 01:55:44;;;;;;;0.40;0.30;;;11.90;76.30;;;;;;4989217;28;20445;-67
2024/03/03 01:58:11;;;;;;;0.88;0.40;;;11.90;76.40;;;;;;4988323;28;20407;-66
2024/03/03 02:00:37;;;;;;;0.30;0.20;;;11.90;77.30;;;;;;4988876;28;20022;-67
2024/03/03 02:03:05;;;;;;;0.37;0.37;;;11.80;77.70;;;;;;4988902;28;20045;-67
2024/03/03 02:05:34;;;;;;;0.45;0.30;;;11.90;76.00;;;;;;4988020;28;20033;-66
2024/03/03 02:07:59;;;;;;;0.20;0.20;;;11.90;76.10;;;;;;4987087;28;20518;-67
2024/03/03 02:10:26;;;;;;;0.30;0.30;;;11.90;76.00;;;;;;4988073;28;20112;-67
2024/03/03 02:12:51;;;;;;;0.60;0.38;;;12.00;75.70;;;;;;4970529;28;20167;-66
2024/03/03 02:15:18;;;;;;;1.07;0.40;;;11.90;76.30;;;;;;4982359;28;20054;-70
2024/03/03 02:17:43;;;;;;;1.38;0.38;;;11.90;77.40;;;;;;4987434;28;20070;-69
2024/03/03 02:20:09;;;;;;;1.23;0.30;;;11.90;76.90;;;;;;4988551;28;20050;-69
2024/03/03 02:22:38;;;;;;;0.50;0.30;;;11.80;77.90;;;;;;4988900;28;20026;-66
2024/03/03 02:25:09;;;;;;;0.40;0.20;;;11.80;76.50;;;;;;4988901;28;20514;-67
2024/03/03 02:27:36;;;;;;;0.63;0.30;;;11.80;77.10;;;;;;4988643;28;20076;-66
2024/03/03 02:30:03;;;;;;;0.30;0.30;;;11.70;77.20;;;;;;4987449;28;20421;-67
2024/03/03 02:32:29;;;;;;;0.98;0.30;;;11.70;76.80;;;;;;4988529;28;20053;-66
2024/03/03 02:34:55;;;;;;;1.15;0.50;;;11.80;77.10;;;;;;4988464;28;20046;-67
2024/03/03 02:37:20;;;;;;;0.70;0.55;;;11.70;77.70;;;;;;4988490;28;20030;-67
2024/03/03 02:39:46;;;;;;;1.10;0.63;;;11.60;78.50;;;;;;4988586;28;20048;-68
2024/03/03 02:42:12;;;;;;;2.33;0.60;;;11.50;78.90;;;;;;4988167;28;20088;-71
2024/03/03 02:44:37;;;;;;;0.67;0.40;;;11.50;78.50;;;;;;4988290;28;20569;-71
2024/03/03 02:47:03;;;;;;;0.90;0.50;;;11.40;80.10;;;;;;4988472;28;20031;-66
2024/03/03 02:49:29;;;;;;;7.55;0.52;;;11.30;79.80;;;;;;4970752;28;20030;-68
2024/03/03 02:51:55;;;;;;;1.97;0.50;;;11.30;81.20;;;;;;4987523;28;20169;-66
2024/03/03 02:54:22;;;;;;;0.77;0.50;;;11.30;80.50;;;;;;4971076;28;20026;-69
2024/03/03 02:56:48;;;;;;;1.58;0.50;;;11.30;80.10;;;;;;4988320;28;20038;-66
2024/03/03 02:59:14;;;;;;;3.65;0.55;;;11.30;80.80;;;;;;4987971;28;20425;-66
2024/03/03 03:01:39;;;;;;;4.18;0.50;;;11.20;81.10;;;;;;4983339;28;20073;-67
2024/03/03 03:04:05;;;;;;;5.70;0.70;;;11.20;81.30;;;;;;4968683;28;20027;-66
2024/03/03 03:06:30;;;;;;;0.50;0.40;;;11.20;80.30;;;;;;4968163;28;20035;-65
2024/03/03 03:08:56;;;;;;;0.93;0.40;;;11.20;80.40;;;;;;4968730;28;20027;-66
2024/03/03 03:11:22;;;;;;;0.50;0.40;;;11.20;80.90;;;;;;4973996;28;20034;-66
2024/03/03 03:13:47;;;;;;;2.87;0.40;;;11.20;82.60;;;;;;4987757;28;20030;-66
2024/03/03 03:16:13;;;;;;;0.70;0.47;;;11.20;80.70;;;;;;4972861;28;20402;-66
2024/03/03 03:18:39;;;;;;;2.20;0.50;;;11.10;81.00;;;;;;4968357;28;20412;-66
2024/03/03 03:21:06;;;;;;;0.77;0.40;;;11.20;80.70;;;;;;4970500;28;20052;-65
2024/03/03 03:23:31;;;;;;;0.73;0.50;;;11.20;81.10;;;;;;4971250;28;20026;-66
2024/03/03 03:25:57;;;;;;;1.90;0.73;;;11.10;81.90;;;;;;4971298;28;20037;-66
2024/03/03 03:28:22;;;;;;;1.00;0.57;;;11.10;83.00;;;;;;4972307;28;20031;-66
2024/03/03 03:30:48;;;;;;;0.83;0.60;;;11.10;81.80;;;;;;4972245;28;20034;-66
2024/03/03 03:33:15;;;;;;;2.93;0.53;;;11.10;81.50;;;;;;4971916;28;20039;-66
2024/03/03 03:35:41;;;;;;;0.40;0.40;;;11.10;82.00;;;;;;4972116;28;20050;-67
2024/03/03 03:38:07;;;;;;;0.75;0.65;;;11.10;81.60;;;;;;4971764;28;20039;-69
2024/03/03 03:40:32;;;;;;;0.97;0.50;;;11.20;81.90;;;;;;4971531;28;20042;-67
2024/03/03 03:42:58;;;;;;;0.63;0.50;;;11.10;82.60;;;;;;4989915;28;20084;-66
2024/03/03 03:45:24;;;;;;;3.63;0.60;;;11.10;83.60;;;;;;4990774;28;20034;-66
2024/03/03 03:47:49;;;;;;;1.90;0.43;;;11.00;82.70;;;;;;4990605;28;20034;-68
2024/03/03 03:50:15;;;;;;;1.03;0.50;;;11.00;82.50;;;;;;4990833;28;20033;-67
2024/03/03 03:52:41;;;;;;;0.30;0.30;;;11.00;84.10;;;;;;4990620;28;20041;-67
2024/03/03 03:55:07;;;;;;;0.63;0.30;;;11.10;82.20;;;;;;4991180;28;20031;-68
2024/03/03 03:57:33;;;;;;;2.20;0.45;;;11.10;81.60;;;;;;4991271;28;20061;-65
2024/03/03 03:59:59;;;;;;;1.13;0.30;;;11.00;82.20;;;;;;4991175;28;20568;-68
2024/03/03 04:02:26;;;;;;;1.90;0.43;;;11.10;81.60;;;;;;4991136;28;20030;-66
2024/03/03 04:04:52;;;;;;;0.75;0.40;;;11.00;82.00;;;;;;4990518;28;20026;-67
2024/03/03 04:07:18;;;;;;;0.40;0.30;;;11.00;81.50;;;;;;4990753;28;20648;-67
2024/03/03 04:09:43;;;;;;;3.73;0.60;;;11.00;81.70;;;;;;4989379;28;20030;-66
2024/03/03 04:12:09;;;;;;;1.70;0.70;;;10.90;81.70;;;;;;4990446;28;20064;-66
2024/03/03 04:14:35;;;;;;;1.40;0.63;;;11.00;81.40;;;;;;4990158;28;20038;-68
2024/03/03 04:17:01;;;;;;;3.33;0.63;;;10.90;81.60;;;;;;4989658;28;20506;-66
2024/03/03 04:19:26;;;;;;;0.73;0.60;;;10.90;82.00;;;;;;4972055;28;20066;-72
2024/03/03 04:21:52;;;;;;;1.60;0.80;;;10.90;82.30;;;;;;4990684;28;20038;-66
2024/03/03 04:24:18;;;;;;;7.95;1.52;;;10.90;82.70;;;;;;4990663;28;20062;-68
2024/03/03 04:26:43;;;;;;;3.07;2.00;;;10.80;83.00;;;;;;4990656;28;20786;-74
2024/03/03 04:29:09;;;;;;;5.33;2.70;;;10.80;83.60;;;;;;4991245;28;20023;-68
2024/03/03 04:31:44;;;;;;;6.90;2.90;;;10.80;83.00;;;;;;4990225;28;20493;-66
2024/03/03 04:34:10;;;;;;;5.65;2.70;;;10.80;82.90;;;;;;4990581;28;20034;-67
2024/03/03 04:36:36;;;;;;;4.70;2.70;;;10.70;84.50;;;;;;4990273;28;20026;-66
2024/03/03 04:39:03;;;;;;;4.70;2.75;;;10.70;84.90;;;;;;4970378;28;20538;-67
2024/03/03 04:41:31;;;;;;;5.68;2.95;;;10.70;84.30;;;;;;4977405;28;20077;-66
2024/03/03 04:43:56;;;;;;;6.03;3.65;;;10.70;85.00;;;;;;4989578;28;20038;-67
2024/03/03 04:46:22;;;;;;;5.23;3.60;;;10.60;85.70;;;;;;4989339;28;20033;-72
2024/03/03 04:48:48;;;;;;;4.40;3.23;;;10.60;86.00;;;;;;4989805;28;20027;-68
2024/03/03 04:51:13;;;;;;;3.63;2.47;;;10.60;85.20;;;;;;4989788;28;20026;-67
2024/03/03 04:53:40;;;;;;;2.57;1.20;;;10.70;85.50;;;;;;4990175;28;20022;-66
2024/03/03 04:56:06;;;;;;;;;;;10.60;84.00;;;;;;4990404;28;20109;-68
2024/03/03 04:58:31;;;;;;;2.28;1.70;;;10.60;86.30;;;;;;4989318;28;20004;-68
2024/03/03 05:00:57;;;;;;;1.97;1.40;;;10.50;87.30;;;;;;4989336;28;20113;-66
2024/03/03 05:03:24;;;;;;;2.87;1.63;;;10.50;86.80;;;;;;4989129;28;20034;-67
2024/03/03 05:05:49;;;;;;;4.18;1.90;;;10.50;89.50;;;;;;4988697;28;20473;-66
2024/03/03 05:08:15;;;;;;;2.80;1.70;;;10.40;89.30;;;;;;4989387;28;20057;-66
2024/03/03 05:10:40;;;;;;;2.73;1.90;;;10.40;89.10;;;;;;4989393;28;20748;-67
2024/03/03 05:13:06;;;;;;;3.30;1.80;;;10.40;89.40;;;;;;4969850;28;20070;-65
2024/03/03 05:15:32;;;;;;;2.67;1.90;;;10.20;90.10;;;;;;4982506;28;20038;-66
2024/03/03 05:17:59;;;;;;;3.25;1.80;;;10.20;90.50;;;;;;4989508;28;20128;-69
2024/03/03 05:20:24;;;;;;;2.88;1.40;;;10.20;88.90;;;;;;4974536;28;20360;-66
2024/03/03 05:22:50;;;;;;;1.47;1.20;;;10.30;88.90;;;;;;4969589;28;20585;-66
2024/03/03 05:25:16;;;;;;;2.00;1.20;;;10.30;88.90;;;;;;4969722;28;20113;-66
2024/03/03 05:27:41;;;;;;;4.40;0.90;;;10.30;89.30;;;;;;4969882;28;20479;-67
2024/03/03 05:30:07;;;;;;;0.97;0.70;;;10.30;90.10;;;;;;4970146;28;20118;-66
2024/03/03 05:32:33;;;;;;;1.45;0.80;;;10.40;88.00;;;;;;4969144;28;20085;-67
2024/03/03 05:34:59;;;;;;;1.70;0.88;;;10.40;87.60;;;;;;4969744;28;20093;-67
2024/03/03 05:37:25;;;;;;;1.17;0.67;;;10.30;89.00;;;;;;4969510;28;20035;-66
2024/03/03 05:39:50;;;;;;;1.33;0.88;;;10.50;89.80;;;;;;4968607;28;20058;-65
2024/03/03 05:42:17;;;;;;;2.78;0.80;;;10.40;90.00;;;;;;4976138;28;20056;-65
2024/03/03 05:44:43;;;;;;;1.10;0.88;;;10.40;90.10;;;;;;4984114;28;20026;-65
2024/03/03 05:47:09;;;;;;;0.82;0.70;;;10.40;90.60;;;;;;4982626;28;20038;-66
2024/03/03 05:49:36;;;;;;;2.15;0.90;;;10.30;91.10;;;;;;4983021;28;20162;-69
2024/03/03 05:52:02;;;;;;;;;;;10.10;92.60;;;;;;4984559;28;20031;-68
2024/03/03 05:54:27;;;;;;;2.30;1.60;;;9.90;93.60;;;;;;4978523;28;19936;-68
2024/03/03 05:56:53;;;;;;;4.40;1.50;;;10.00;93.80;;;;;;4980967;28;20036;-67
2024/03/03 05:59:19;;;;;;;1.67;1.20;;;10.10;93.80;;;;;;4985266;28;20042;-66
2024/03/03 06:01:48;;;;;;;2.60;1.48;;;10.10;93.60;;;;;;4983691;28;20033;-68
2024/03/03 06:04:17;;;;;;;1.58;0.90;;;10.20;92.90;;;;;;4983468;28;20081;-69
2024/03/03 06:06:44;;;;;;;1.50;0.98;;;10.30;92.80;;;;;;4984357;28;20061;-72
2024/03/03 06:09:12;;;;;;;3.67;1.23;;;10.30;93.00;;;;;;4979308;28;20475;-68
2024/03/03 06:11:38;;;;;;;3.67;1.25;;;10.20;92.80;;;;;;4982560;28;20026;-67
2024/03/03 06:14:08;;;;;;;1.20;0.93;;;10.20;93.20;;;;;;4981455;28;20049;-70
2024/03/03 06:16:33;;;;;;;1.58;0.80;;;10.20;92.90;;;;;;4978424;28;20062;-70
2024/03/03 06:18:59;;;;;;;4.30;1.03;;;10.20;92.80;;;;;;4975833;28;20069;-68
2024/03/03 06:21:25;;;;;;;1.47;0.87;;;10.20;93.40;;;;;;4983892;28;20277;-68
2024/03/03 06:23:50;;;;;;;1.07;0.90;;;10.20;93.10;;;;;;4980002;28;20073;-68
2024/03/03 06:26:16;;;;;;;1.63;1.17;;;10.20;93.80;;;;;;4980969;28;20026;-68
2024/03/03 06:28:45;;;;;;;3.23;1.10;;;10.10;94.30;;;;;;4982808;28;20042;-68
2024/03/03 06:31:12;;;;;;;2.60;1.08;;;10.10;95.10;;;;;;4974740;28;20681;-68
2024/03/03 06:33:38;;;;;;;1.08;0.70;;;10.20;94.90;;;;;;4981646;28;20038;-69
2024/03/03 06:36:04;;;;;;;1.92;0.50;;;10.20;94.90;;;;;;4983072;28;20034;-70
2024/03/03 06:38:30;;;;;;;1.17;0.57;;;10.10;95.30;;;;;;4974198;28;20450;-67
2024/03/03 06:40:55;;;;;;;1.33;0.57;;;10.20;94.70;;;;;;4973875;28;20035;-68
2024/03/03 06:43:21;;;;;;;0.70;0.60;;;10.20;94.20;;;;;;4979685;28;20106;-68
2024/03/03 06:45:47;;;;;;;0.50;0.50;;;10.30;93.70;;;;;;4983043;28;20042;-68
2024/03/03 06:48:12;;;;;;;1.25;0.70;;;10.30;93.90;;;;;;4979032;28;20591;-67
2024/03/03 06:50:38;;;;;;;1.40;0.70;;;10.20;93.90;;;;;;4982752;28;20034;-67
2024/03/03 06:53:04;;;;;;;0.83;0.60;;;10.20;94.50;;;;;;4980986;28;20026;-68
2024/03/03 06:55:30;;;;;;;1.15;0.60;;;10.20;94.60;;;;;;4979502;28;20502;-69
2024/03/03 06:57:56;;;;;;;1.50;0.90;;;10.10;95.50;;;;;;4982238;28;20034;-68
2024/03/03 07:00:21;;;;;;;1.77;0.77;;;10.10;96.70;;;;;;4979160;28;20478;-68
2024/03/03 07:03:38;;;;;;;2.27;0.80;;;10.10;97.20;;;;;;4983364;28;20414;-69
2024/03/03 07:05:39;;;;;;;0.80;0.60;;;10.10;98.30;;;;;;4979608;28;20278;-68
2024/03/03 07:08:05;;;;;;;2.65;0.60;;;10.00;99.70;;;;;;4982705;28;20135;-68
2024/03/03 07:10:31;;;;;;;2.15;0.70;;;10.00;99.90;;;;;;4976425;28;20045;-67
2024/03/03 07:12:57;;;;;;;1.15;0.60;;;9.90;99.90;;;;;;4977756;28;20030;-67
2024/03/03 07:15:23;;;;;;;1.13;0.77;;;9.90;99.90;;;;;;4980828;28;20084;-67
2024/03/03 07:17:49;;;;;;;1.30;0.83;;;9.90;99.90;;;;;;4984040;28;20425;-67
2024/03/03 07:20:14;;;;;;;0.70;0.70;;;9.90;99.90;;;;;;4977164;28;20491;-67
2024/03/03 07:22:40;;;;;;;1.50;0.90;;;9.90;99.90;;;;;;4977386;28;20042;-67
2024/03/03 07:25:07;;;;;;;0.95;0.73;;;9.90;99.90;;;;;;4984186;28;20631;-66
2024/03/03 07:27:32;;;;;;;1.25;0.80;;;9.90;99.90;;;;;;4979928;28;20038;-66
2024/03/03 07:29:58;;;;;;;1.48;0.82;;;9.80;99.90;;;;;;4974625;28;20037;-66
2024/03/03 07:32:28;;;;;;;2.40;0.97;;;9.80;99.90;;;;;;4976335;28;20419;-68
2024/03/03 07:34:57;;;;;;;0.77;0.77;;;9.80;99.90;;;;;;4980753;28;20490;-66
2024/03/03 07:37:22;;;;;;;0.98;0.70;;;9.80;99.90;;;;;;4973865;28;20031;-65
2024/03/03 07:39:48;;;;;;;1.37;0.80;;;9.80;99.90;;;;;;4974098;28;20468;-66
2024/03/03 07:42:14;;;;;;;1.40;0.80;;;9.90;99.90;;;;;;4982233;28;20041;-66
2024/03/03 07:44:39;;;;;;;0.80;0.70;;;9.90;99.90;;;;;;4980098;28;20589;-68
2024/03/03 07:47:05;;;;;;;2.67;0.70;;;9.90;99.90;;;;;;4981925;28;20019;-66
2024/03/03 07:49:31;;;;;;;0.83;0.60;;;9.80;99.90;;;;;;4984277;28;20407;-66
2024/03/03 07:51:57;;;;;;;1.70;0.90;;;9.80;99.90;;;;;;4983304;28;20406;-66
2024/03/03 07:54:22;;;;;;;4.90;0.93;;;9.90;99.90;;;;;;4982757;28;20035;-68
2024/03/03 07:56:48;;;;;;;2.00;1.07;;;9.60;99.90;;;;;;4978919;28;20026;-66
2024/03/03 07:59:14;;;;;;;3.60;0.80;;;9.30;99.90;;;;;;4979100;28;20034;-66
2024/03/03 08:01:40;;;;;;;4.23;0.87;;;9.10;99.90;;;;;;4978717;28;20030;-67
2024/03/03 08:04:11;;;;;;;1.23;0.60;;;9.00;99.90;;;;;;4978113;28;20286;-66
2024/03/03 08:06:36;;;;;;;3.03;0.68;;;9.00;99.90;;;;;;4976802;28;20101;-65
2024/03/03 08:09:03;;;;;;;5.23;0.70;;;9.00;99.90;;;;;;4983705;28;20077;-65
2024/03/03 08:11:31;;;;;;;1.30;0.75;;;8.90;99.90;;;;;;4970077;28;20797;-68
2024/03/03 08:13:57;;;;;;;1.05;0.63;;;8.80;99.90;;;;;;4979905;28;20034;-67
2024/03/03 08:16:22;;;;;;;1.85;0.73;;;8.60;99.90;;;;;;4980047;28;20038;-70
2024/03/03 08:18:48;;;;;;;1.50;1.00;;;8.50;99.90;;;;;;4980656;28;20121;-67
2024/03/03 08:21:14;;;;;;;1.77;0.80;;;8.50;99.90;;;;;;4981298;28;20087;-66
2024/03/03 08:23:39;;;;;;;4.10;0.97;;;8.40;99.90;;;;;;4977916;28;20027;-67
2024/03/03 08:26:05;;;;;;;3.22;0.80;;;8.40;99.90;;;;;;4980700;28;20026;-68
2024/03/03 08:28:34;;;;;;;0.88;0.60;;;8.20;99.90;;;;;;4989200;28;20494;-66
2024/03/03 08:31:00;;;;;;;0.85;0.50;;;8.30;99.90;;;;;;4981387;28;20026;-72
2024/03/03 08:33:29;;;;;;;1.75;0.40;;;8.20;99.90;;;;;;4981151;28;20120;-66
2024/03/03 08:35:55;;;;;;;0.70;0.47;;;8.10;99.90;;;;;;4975608;28;20038;-67
2024/03/03 08:38:20;;;;;;;4.23;0.50;;;7.90;99.90;;;;;;4982732;28;20050;-67
2024/03/03 08:40:46;;;;;;;1.80;0.67;;;7.80;99.90;;;;;;4977684;28;20293;-70
2024/03/03 08:43:11;;;;;;;1.70;0.80;;;7.70;99.90;;;;;;4983387;28;20042;-67
2024/03/03 08:45:37;;;;;;;0.67;0.50;;;7.70;99.90;;;;;;4982536;28;20097;-66
2024/03/03 08:48:03;;;;;;;0.53;0.50;;;7.70;99.90;;;;;;4980900;28;20564;-66
2024/03/03 08:50:29;;;;;;;1.40;0.80;;;7.50;99.90;;;;;;4969460;28;20525;-72
2024/03/03 08:52:54;;;;;;;1.05;0.80;;;7.60;99.90;;;;;;4987774;28;20034;-65
2024/03/03 08:55:20;;;;;;;5.70;2.10;;;7.50;99.90;;;;;;4964708;28;20037;-66
2024/03/03 08:57:46;;;;;;;2.63;1.30;;;7.50;99.90;;;;;;4978754;28;20073;-68
2024/03/03 09:00:15;;;;;;;3.07;1.40;;;7.50;99.90;;;;;;4979179;28;20293;-73
2024/03/03 09:02:41;;;;;;;2.00;1.38;;;7.40;99.90;;;;;;4978953;28;20497;-69
2024/03/03 09:05:09;;;;;;;4.78;2.30;;;7.40;99.90;;;;;;4979368;28;20113;-74
2024/03/03 09:07:35;;;;;;;2.28;1.40;;;7.50;99.90;;;;;;4969783;28;20034;-71
2024/03/03 09:10:01;;;;;;;3.15;1.52;;;7.40;99.90;;;;;;4985627;28;20369;-67
2024/03/03 09:12:27;;;;;;;3.13;1.33;;;7.40;99.90;;;;;;4982785;28;20089;-69
2024/03/03 09:14:54;;;;;;;4.63;2.15;;;7.40;99.90;;;;;;4981360;28;20030;-67
2024/03/03 09:17:20;;;;;;;4.03;2.33;;;7.30;99.90;;;;;;4979535;28;20034;-74
2024/03/03 09:19:46;;;;;;;2.13;1.17;;;7.20;99.90;;;;;;4979772;28;20041;-70
2024/03/03 09:22:12;;;;;;;1.97;1.20;;;7.20;99.90;;;;;;4971467;28;20042;-68
2024/03/03 09:24:41;;;;;;;2.15;1.60;;;7.10;99.90;;;;;;4984033;28;20070;-67
2024/03/03 09:27:06;;;;;;;3.10;1.45;;;7.20;99.90;;;;;;4984196;28;20034;-67
2024/03/03 09:29:32;;;;;;;2.87;1.20;;;7.10;99.90;;;;;;4979852;28;20045;-69
2024/03/03 09:31:58;;;;;;;2.03;0.70;;;6.90;99.90;;;;;;4979745;28;20030;-69
2024/03/03 09:34:24;;;;;;;1.23;0.60;;;6.80;99.90;;;;;;4978055;28;20037;-70
2024/03/03 09:36:50;;;;;;;0.90;0.60;;;6.70;99.90;;;;;;4980398;28;20069;-68
2024/03/03 09:39:16;;;;;;;0.70;0.50;;;6.60;99.90;;;;;;4982647;28;20109;-66
2024/03/03 09:41:43;;;;;;;2.43;0.60;;;6.60;99.90;;;;;;4984433;28;20026;-67
2024/03/03 09:44:10;;;;;;;1.13;0.80;;;6.60;99.90;;;;;;4985954;28;20154;-66
2024/03/03 09:46:38;;;;;;;2.08;0.95;;;6.60;99.90;;;;;;4979952;28;20116;-68
2024/03/03 09:49:06;;;;;;;1.10;0.73;;;6.60;99.90;;;;;;4982213;28;20026;-67
2024/03/03 09:51:33;;;;;;;0.80;0.73;;;6.60;99.90;;;;;;4981817;28;20555;-66
2024/03/03 09:53:59;;;;;;;1.45;1.13;;;6.60;99.90;;;;;;4979334;28;20092;-66
2024/03/03 09:56:26;;;;;;;2.38;0.85;;;6.60;99.90;;;;;;4978146;28;20044;-68
2024/03/03 09:58:52;;;;;;;1.42;0.90;;;6.50;99.90;;;;;;4985608;28;20434;-72
2024/03/03 10:01:21;;;;;;;2.97;1.50;;;6.60;99.90;;;;;;4984509;28;20026;-70
2024/03/03 10:03:47;;;;;;;1.98;1.42;;;6.60;99.90;;;;;;4965266;28;20034;-66
2024/03/03 10:06:15;;;;;;;1.75;1.10;;;6.70;99.90;;;;;;4984686;28;20022;-66
2024/03/03 10:08:42;;;;;;;3.10;1.08;;;6.60;99.90;;;;;;4982135;28;20486;-66
2024/03/03 10:11:17;;;;;;;1.23;0.82;;;6.60;99.90;;;;;;4985925;28;20029;-66
2024/03/03 10:13:45;;;;;;;3.78;1.25;;;6.60;99.90;;;;;;4987186;28;20529;-67
2024/03/03 10:16:14;;;;;;;1.42;1.23;;;6.50;99.90;;;;;;4983815;28;20459;-66
2024/03/03 10:18:40;;;;;;;2.40;1.25;;;6.30;99.90;;;;;;4985543;28;20046;-66
2024/03/03 10:21:06;;;;;;;2.60;1.80;;;6.10;99.90;;;;;;4982705;28;20518;-66
2024/03/03 10:23:32;;;;;;;2.00;1.67;;;6.00;99.90;;;;;;4982493;28;20038;-67
2024/03/03 10:25:58;;;;;;;1.50;0.98;;;6.00;99.90;;;;;;4983139;28;20469;-67
2024/03/03 10:28:24;;;;;;;1.70;0.98;;;6.00;99.90;;;;;;4980871;28;20117;-68
2024/03/03 10:30:51;;;;;;;2.15;0.90;;;5.90;99.90;;;;;;4973799;28;20592;-70
2024/03/03 10:33:17;;;;;;;1.77;1.10;;;5.90;99.90;;;;;;4984261;28;20034;-67
2024/03/03 10:35:43;;;;;;;;;;;5.90;99.90;;;;;;4977368;28;20702;-64
2024/03/03 10:38:10;;;;;;;1.55;1.13;;;5.90;99.90;;;;;;4985228;28;19914;-66
2024/03/03 10:40:36;;;;;;;3.13;1.35;;;5.80;99.90;;;;;;4979317;28;20053;-67
2024/03/03 10:43:02;;;;;;;1.50;0.70;;;5.90;99.90;;;;;;4983651;28;20030;-68
2024/03/03 10:45:27;;;;;;;1.55;0.98;;;5.90;99.90;;;;;;4975592;28;20034;-69
2024/03/03 10:47:53;;;;;;;1.60;0.83;;;5.80;99.90;;;;;;4981224;28;20092;-69
2024/03/03 10:50:21;;;;;;;1.33;0.85;;;5.90;99.90;;;;;;4983815;28;20033;-65
2024/03/03 10:52:49;;;;;;;1.35;1.00;;;5.80;99.90;;;;;;4983862;28;20242;-66
2024/03/03 10:55:16;;;;;;;1.83;1.00;;;5.80;99.90;;;;;;4977663;28;20030;-68
2024/03/03 10:57:42;;;;;;;;;;;5.70;99.90;;;;;;4980154;28;20043;-65
2024/03/03 11:00:16;;;;;;;2.35;0.80;;;5.70;99.90;;;;;;4979234;28;19925;-68
2024/03/03 11:02:42;;;;;;;1.05;0.80;;;5.70;99.90;;;;;;4985173;28;20026;-71
2024/03/03 11:05:12;;;;;;;1.90;1.08;;;5.60;99.90;;;;;;4983164;28;20041;-66
2024/03/03 11:07:38;;;;;;;2.13;1.67;;;5.60;99.90;;;;;;4979229;28;20031;-67
2024/03/03 11:10:05;;;;;;;2.17;1.30;;;5.60;99.90;;;;;;4993353;28;20577;-67
2024/03/03 11:12:36;;;;;;;2.08;1.33;;;5.60;99.90;;;;;;5000866;28;20046;-69
2024/03/03 11:15:07;;;;;;;1.70;1.10;;;5.60;99.90;;;;;;5001190;28;20038;-69
2024/03/03 11:17:39;;;;;;;1.55;1.20;;;5.40;99.90;;;;;;5002076;28;20141;-68
2024/03/03 11:20:12;;;;;;;1.15;0.85;;;5.30;99.90;;;;;;5002411;28;20026;-68
2024/03/03 11:22:45;;;;;;;1.85;1.13;;;5.30;99.90;;;;;;5001185;28;20084;-69
2024/03/03 11:25:18;;;;;;;1.30;0.95;;;5.20;99.90;;;;;;4999116;28;20033;-68
2024/03/03 11:27:53;;;;;;;1.58;1.00;;;5.20;99.90;;;;;;5001749;28;20030;-69
2024/03/03 11:30:19;;;;;;;0.75;0.60;;;5.00;99.90;;;;;;5001033;28;20054;-65
2024/03/03 11:32:45;;;;;;;2.15;1.00;;;5.00;99.90;;;;;;5002422;28;20405;-68
2024/03/03 11:35:12;;;;;;;1.45;1.20;;;5.10;99.90;;;;;;4994974;28;20033;-68
2024/03/03 11:37:38;;;;;;;;;;;5.10;99.90;;;;;;4999870;28;20065;-70
2024/03/03 11:40:04;;;;;;;2.88;1.77;;;5.00;99.90;;;;;;4999177;28;19946;-70
2024/03/03 11:42:32;;;;;;;3.50;2.13;;;4.90;99.90;;;;;;5007960;28;20029;-73
2024/03/03 11:45:03;;;;;;;4.10;2.00;;;5.00;99.90;;;;;;5007983;28;20061;-68
2024/03/03 11:47:30;;;;;;;7.15;4.28;;;4.80;99.90;;;;;;5002553;28;20506;-67
2024/03/03 11:49:57;;;;;;;2.42;2.17;;;4.80;99.90;;;;;;5001424;28;20319;-71
2024/03/03 11:52:40;;;;;;;3.92;2.58;;;4.80;99.90;;;;;;5003164;28;20105;-71
2024/03/03 11:55:27;;;;;;;6.75;2.67;;;4.70;99.90;;;;;;5000790;28;20021;-69
2024/03/03 11:57:55;;;;;;;8.20;4.53;;;4.90;99.90;;;;;;4998115;28;20038;-69
2024/03/03 12:00:27;;;;;;;5.32;3.15;;;4.90;99.90;;;;;;5007028;28;20030;-69
2024/03/03 12:02:54;;;;;;;4.30;2.40;;;5.00;99.90;;;;;;5005171;28;20425;-70
2024/03/03 12:05:21;;;;;;;4.85;3.20;;;4.90;99.90;;;;;;5007384;28;20176;-70
2024/03/03 12:07:51;;;;;;;5.07;3.55;;;5.00;99.90;;;;;;4999120;28;20037;-69
2024/03/03 12:10:25;;;;;;;3.97;2.40;;;5.00;99.90;;;;;;5002980;28;20406;-67
2024/03/03 12:12:51;;;;;;;5.63;3.15;;;4.90;99.90;;;;;;4997972;28;20088;-68
2024/03/03 12:15:18;;;;;;;;;;;4.80;99.90;;;;;;5008103;28;20037;-71
2024/03/03 12:17:48;;;;;;;2.42;2.17;;;4.90;99.90;;;;;;5001923;28;19921;-65
2024/03/03 12:20:19;;;;;;;2.95;2.28;;;4.90;99.90;;;;;;5004960;28;20080;-68
2024/03/03 12:22:46;;;;;;;3.78;2.75;;;4.90;99.90;;;;;;5005402;28;20038;-70
2024/03/03 12:25:14;;;;;;;5.15;3.10;;;4.90;99.90;;;;;;5001985;28;20083;-66
2024/03/03 12:27:46;;;;;;;2.30;1.95;;;4.90;99.90;;;;;;5008435;28;20045;-71
2024/03/03 12:30:33;;;;;;;2.33;1.88;;;4.80;99.90;;;;;;4997643;28;20682;-66
2024/03/03 12:33:03;;;;;;;3.35;2.08;;;4.80;99.90;;;;;;5005930;28;20096;-66
2024/03/03 12:35:29;;;;;;;2.38;1.63;;;4.70;99.90;;;;;;5000210;28;20065;-66
2024/03/03 12:37:55;;;;;;;2.03;1.57;;;4.80;99.90;;;;;;5002940;28;20066;-65
2024/03/03 12:40:21;;;;;;;2.22;1.73;;;4.70;99.90;;;;;;5000098;28;20069;-66
2024/03/03 12:42:53;;;;;;;3.50;2.40;;;4.70;99.90;;;;;;5005602;28;20130;-66
2024/03/03 12:45:19;;;;;;;4.18;2.70;;;4.70;99.90;;;;;;4997044;28;20465;-67
2024/03/03 12:47:45;;;;;;;4.55;2.72;;;4.70;99.90;;;;;;5002629;28;20446;-65
2024/03/03 12:50:15;;;;;;;4.10;2.80;;;4.60;99.90;;;;;;5006917;28;20029;-68